Time;durP1;ratioP1;P1;durP2;ratioP2;P2;SDS_P1;SDS_P2;PMS_P1;PMS_P2;Temp;Humidity;BMP_temperature;BMP_pressure;BME280_temperature;BME280_humidity;BME280_pressure;Samples;Min_cycle;Max_cycle;Signal;HPM_P1;HPM_P2
2023/01/07 00:00:48;;;;;;;4.88;3.83;;;;;;;7.47;96.11;99055.50;5015088;28;20045;-80
2023/01/07 00:03:15;;;;;;;6.05;3.97;;;;;;;7.50;96.02;99057.72;5016721;28;20041;-79
2023/01/07 00:05:41;;;;;;;4.18;3.63;;;;;;;7.41;97.28;99049.25;5013201;28;20601;-79
2023/01/07 00:08:06;;;;;;;4.60;4.20;;;;;;;7.49;96.67;99054.25;5015768;28;20044;-80
2023/01/07 00:10:33;;;;;;;7.45;4.25;;;;;;;7.42;96.35;99044.75;5025482;28;20037;-81
2023/01/07 00:12:58;;;;;;;7.57;4.35;;;;;;;7.38;97.37;99040.94;5031287;28;20041;-80
2023/01/07 00:15:24;;;;;;;4.78;4.10;;;;;;;7.33;97.64;99038.13;5027055;28;20374;-80
2023/01/07 00:17:49;;;;;;;7.90;5.25;;;;;;;7.39;97.97;99042.53;5010679;28;20083;-79
2023/01/07 00:20:14;;;;;;;5.35;4.47;;;;;;;7.47;97.55;99048.34;5024746;28;20025;-79
2023/01/07 00:22:40;;;;;;;12.48;5.45;;;;;;;7.41;97.72;99043.94;5047005;28;20033;-79
2023/01/07 00:25:05;;;;;;;7.65;5.32;;;;;;;7.39;97.23;99035.41;5028676;28;20056;-79
2023/01/07 00:27:31;;;;;;;7.40;5.50;;;;;;;7.45;97.50;99037.16;5012536;28;20068;-79
2023/01/07 00:29:56;;;;;;;6.22;5.18;;;;;;;7.46;97.44;99033.47;5032591;28;20101;-79
2023/01/07 00:32:46;;;;;;;5.80;5.13;;;;;;;7.55;97.02;99044.59;5015372;28;20556;-80
2023/01/07 00:35:20;;;;;;;7.50;5.10;;;;;;;7.45;96.81;99039.81;5028484;28;20094;-80
2023/01/07 00:37:48;;;;;;;6.82;5.13;;;;;;;7.45;96.92;99031.03;5026940;28;20405;-80
2023/01/07 00:40:14;;;;;;;6.78;4.88;;;;;;;7.45;97.35;99034.50;5030575;28;20067;-79
2023/01/07 00:43:00;;;;;;;5.78;4.57;;;;;;;7.51;96.91;99036.25;5012360;28;20064;-79
2023/01/07 00:45:28;;;;;;;6.88;5.60;;;;;;;7.55;96.72;99040.09;5025566;28;20030;-79
2023/01/07 00:47:53;;;;;;;5.75;5.13;;;;;;;7.46;96.79;99036.13;5025030;28;20037;-79
2023/01/07 00:50:23;;;;;;;10.43;5.50;;;;;;;7.52;96.79;99042.38;4992167;28;20103;-79
2023/01/07 00:52:49;;;;;;;9.50;5.20;;;;;;;7.47;97.62;99040.38;5028741;28;20029;-79
2023/01/07 00:55:15;;;;;;;6.95;5.65;;;;;;;7.54;97.35;99045.63;5025900;28;20041;-80
2023/01/07 00:57:41;;;;;;;5.57;4.45;;;;;;;7.36;97.40;99041.13;5019771;28;20107;-79
2023/01/07 01:00:08;;;;;;;7.18;4.50;;;;;;;7.34;97.88;99035.25;5031077;28;20025;-78
2023/01/07 01:02:33;;;;;;;5.45;4.47;;;;;;;7.30;98.04;99023.44;5007443;28;20033;-78
2023/01/07 01:04:59;;;;;;;5.25;4.57;;;;;;;7.40;98.17;99033.56;5026289;28;20091;-80
2023/01/07 01:07:24;;;;;;;5.20;4.70;;;;;;;7.40;98.20;99023.72;5021812;28;20033;-80
2023/01/07 01:09:50;;;;;;;5.47;4.68;;;;;;;7.39;98.05;99029.25;5007478;28;20048;-80
2023/01/07 01:12:15;;;;;;;4.75;4.25;;;;;;;7.45;97.65;99021.22;5023138;28;20153;-80
2023/01/07 01:14:40;;;;;;;5.55;3.88;;;;;;;7.42;97.68;99029.66;4989528;28;20041;-80
2023/01/07 01:17:06;;;;;;;5.28;4.45;;;;;;;7.34;97.92;99014.00;5028097;28;20434;-80
2023/01/07 01:19:31;;;;;;;4.80;4.35;;;;;;;7.38;97.46;99019.69;5028599;28;20037;-80
2023/01/07 01:21:56;;;;;;;4.45;4.03;;;;;;;7.46;96.98;99014.06;5025682;28;20496;-79
2023/01/07 01:24:22;;;;;;;5.22;4.35;;;;;;;7.53;97.30;99026.22;5010203;28;20073;-77
2023/01/07 01:26:47;;;;;;;4.13;3.72;;;;;;;7.44;97.57;99022.25;5026524;28;20040;-79
2023/01/07 01:29:12;;;;;;;4.57;3.97;;;;;;;7.40;97.52;99018.41;5030127;28;20459;-80
2023/01/07 01:31:38;;;;;;;6.00;4.15;;;;;;;7.37;98.12;99031.34;5012371;28;20045;-79
2023/01/07 01:34:03;;;;;;;5.07;3.90;;;;;;;7.35;98.69;99026.25;5027346;28;20041;-79
2023/01/07 01:36:29;;;;;;;5.78;4.50;;;;;;;7.41;98.29;99027.19;5029276;28;20030;-79
2023/01/07 01:38:55;;;;;;;5.22;4.30;;;;;;;7.44;98.50;99030.22;5008596;28;20046;-79
2023/01/07 01:41:21;;;;;;;4.55;4.15;;;;;;;7.51;98.12;99025.63;5028043;28;20038;-79
2023/01/07 01:43:46;;;;;;;5.03;4.40;;;;;;;7.47;98.01;99023.63;5025036;28;20091;-80
2023/01/07 01:46:17;;;;;;;5.80;4.43;;;;;;;7.41;97.66;99009.41;5007671;28;20108;-80
2023/01/07 01:48:49;;;;;;;6.05;3.92;;;;;;;7.44;98.21;99022.25;5028025;28;20037;-80
2023/01/07 01:51:19;;;;;;;5.35;4.65;;;;;;;7.52;97.34;99013.16;5025796;28;20117;-80
2023/01/07 01:53:45;;;;;;;4.43;3.60;;;;;;;7.54;96.83;99014.56;5021013;28;21690;-80
2023/01/07 01:56:15;;;;;;;8.23;4.80;;;;;;;7.49;97.99;99019.72;5024400;28;20029;-80
2023/01/07 01:58:44;;;;;;;8.60;5.35;;;;;;;7.36;97.91;99014.59;5027479;28;20056;-80
2023/01/07 02:01:11;;;;;;;6.70;4.25;;;;;;;7.31;97.50;99001.19;5029832;28;20033;-79
2023/01/07 02:03:37;;;;;;;7.07;4.15;;;;;;;7.33;97.76;99011.56;5030117;28;20091;-80
2023/01/07 02:06:03;;;;;;;5.32;4.82;;;;;;;7.30;97.97;99010.19;5030922;28;20029;-79
2023/01/07 02:08:28;;;;;;;7.00;5.40;;;;;;;7.33;97.30;99009.75;5031521;28;20524;-79
2023/01/07 02:11:12;;;;;;;7.07;6.07;;;;;;;7.20;98.02;99007.25;5008795;28;20029;-79
2023/01/07 02:14:22;;;;;;;7.45;5.80;;;;;;;7.47;97.48;99023.63;5030510;28;20033;-79
2023/01/07 02:16:56;;;;;;;7.18;5.68;;;;;;;7.31;97.50;99022.44;5025883;28;20425;-80
2023/01/07 02:19:51;;;;;;;8.15;6.05;;;;;;;7.43;97.44;99014.50;5027722;28;20068;-79
2023/01/07 02:22:38;;;;;;;7.30;6.18;;;;;;;7.38;97.19;99022.34;5026518;28;20025;-78
2023/01/07 02:25:22;;;;;;;6.70;5.63;;;;;;;7.41;97.74;99024.53;5029038;28;20033;-78
2023/01/07 02:28:09;;;;;;;7.07;5.43;;;;;;;7.55;97.15;99026.81;5027155;28;20044;-78
2023/01/07 02:30:46;;;;;;;8.63;5.45;;;;;;;7.46;96.70;99019.38;5028582;28;21787;-80
2023/01/07 02:33:41;;;;;;;7.95;5.45;;;;;;;7.39;97.28;99024.78;5028077;28;20048;-80
2023/01/07 02:36:23;;;;;;;11.02;6.43;;;;;;;7.43;97.32;99020.63;5015546;28;20497;-80
2023/01/07 02:39:26;;;;;;;8.82;6.57;;;;;;;7.33;97.19;99017.72;5031438;28;20118;-79
2023/01/07 02:41:58;;;;;;;9.20;6.13;;;;;;;7.40;96.63;99015.75;5029755;28;20075;-80
2023/01/07 02:44:47;;;;;;;7.97;6.22;;;;;;;7.32;97.13;99005.44;5007284;28;20840;-80
2023/01/07 02:47:19;;;;;;;9.20;4.80;;;;;;;7.41;96.72;99014.75;5028246;28;20030;-80
2023/01/07 02:49:47;;;;;;;7.53;6.35;;;;;;;7.35;97.23;98999.72;5029597;28;20017;-81
2023/01/07 02:52:32;;;;;;;11.07;6.78;;;;;;;7.32;96.98;99001.97;5010382;28;20022;-79
2023/01/07 02:55:15;;;;;;;8.63;6.47;;;;;;;7.30;96.68;99001.38;5029764;28;20034;-79
2023/01/07 02:58:00;;;;;;;10.50;7.35;;;;;;;7.37;97.00;99005.59;5029563;28;20167;-80
2023/01/07 03:00:58;;;;;;;14.90;8.30;;;;;;;7.36;96.57;99006.63;5021304;28;20108;-80
2023/01/07 03:03:45;;;;;;;10.55;8.23;;;;;;;7.32;97.45;98999.31;5026904;28;20021;-79
2023/01/07 03:06:39;;;;;;;9.27;6.60;;;;;;;7.35;96.82;99001.53;5028135;28;20037;-79
2023/01/07 03:09:30;;;;;;;11.77;6.88;;;;;;;7.37;96.06;98997.63;5007525;28;20117;-79
2023/01/07 03:12:20;;;;;;;12.10;8.23;;;;;;;7.43;96.05;99002.03;5028835;28;20044;-80
2023/01/07 03:14:45;;;;;;;13.05;7.88;;;;;;;7.37;97.08;99000.28;5027737;28;20029;-79
2023/01/07 03:17:18;;;;;;;11.95;8.60;;;;;;;7.46;96.67;98990.16;5030902;28;20040;-80
2023/01/07 03:19:48;;;;;;;11.73;8.10;;;;;;;7.45;96.74;98991.19;5030888;28;20669;-80
2023/01/07 03:22:18;;;;;;;10.52;8.85;;;;;;;7.33;96.42;98974.41;5024846;28;20495;-79
2023/01/07 03:24:47;;;;;;;10.25;7.93;;;;;;;7.42;96.78;98978.38;4993404;28;20025;-79
2023/01/07 03:27:15;;;;;;;12.85;8.52;;;;;;;7.40;96.43;98986.53;5008637;28;20033;-79
2023/01/07 03:29:41;;;;;;;11.77;8.73;;;;;;;7.44;97.06;98987.75;5029040;28;20041;-79
2023/01/07 03:32:17;;;;;;;13.63;8.30;;;;;;;7.42;97.02;98989.81;5012614;28;20032;-79
2023/01/07 03:34:44;;;;;;;12.27;9.40;;;;;;;7.46;96.55;98976.88;5027460;28;20093;-79
2023/01/07 03:37:14;;;;;;;12.45;8.70;;;;;;;7.43;97.04;98983.47;5009932;28;20045;-79
2023/01/07 03:39:41;;;;;;;12.88;7.47;;;;;;;7.43;96.71;98982.63;5010960;28;20072;-79
2023/01/07 03:44:53;;;;;;;13.48;9.30;;;;;;;7.42;96.71;98979.19;5015404;28;20049;-79
2023/01/07 03:47:20;;;;;;;12.25;9.00;;;;;;;7.41;96.72;98966.13;5027344;28;20025;-80
2023/01/07 03:49:45;;;;;;;13.23;8.98;;;;;;;7.40;96.43;98970.63;5028594;28;20041;-80
2023/01/07 03:52:11;;;;;;;13.30;8.20;;;;;;;7.47;96.68;98966.03;5012868;28;20091;-80
2023/01/07 03:54:36;;;;;;;10.23;8.55;;;;;;;7.44;96.59;98965.69;5028577;28;20052;-79
2023/01/07 03:57:02;;;;;;;13.93;7.00;;;;;;;7.41;96.37;98966.13;4990481;28;20034;-79
2023/01/07 03:59:27;;;;;;;12.07;9.18;;;;;;;7.32;97.79;98957.66;5024669;28;20119;-78
2023/01/07 04:01:52;;;;;;;11.10;8.48;;;;;;;7.45;97.19;98959.31;5011485;28;20078;-79
2023/01/07 04:04:18;;;;;;;10.35;8.52;;;;;;;7.42;96.52;98954.47;5022530;28;20021;-79
2023/01/07 04:06:43;;;;;;;9.85;8.00;;;;;;;7.31;97.49;98952.59;5026691;28;20033;-79
2023/01/07 04:09:10;;;;;;;11.20;8.43;;;;;;;7.32;96.66;98941.72;5027806;28;20076;-80
2023/01/07 04:11:36;;;;;;;11.80;9.00;;;;;;;7.40;96.65;98941.41;5028316;28;20029;-79
2023/01/07 04:14:01;;;;;;;9.57;6.30;;;;;;;7.30;96.75;98945.66;5011764;28;20167;-79
2023/01/07 04:16:27;;;;;;;10.95;7.93;;;;;;;7.29;97.19;98944.03;5010291;28;20066;-78
2023/01/07 04:18:52;;;;;;;11.60;9.05;;;;;;;7.39;96.60;98944.28;5029469;28;20041;-78
2023/01/07 04:21:17;;;;;;;11.82;7.68;;;;;;;7.42;96.91;98952.63;5012628;28;20041;-78
2023/01/07 04:23:43;;;;;;;11.50;8.77;;;;;;;7.33;97.20;98935.41;5027601;28;20029;-78
2023/01/07 04:26:08;;;;;;;11.27;8.68;;;;;;;7.26;97.26;98918.75;5028252;28;20030;-78
2023/01/07 04:28:33;;;;;;;11.10;8.48;;;;;;;7.35;97.41;98933.34;5010697;28;20096;-78
2023/01/07 04:30:59;;;;;;;10.77;8.02;;;;;;;7.33;96.98;98923.97;5026750;28;20120;-79
2023/01/07 04:33:24;;;;;;;10.88;7.88;;;;;;;7.28;97.42;98932.59;5029008;28;20064;-79
2023/01/07 04:35:50;;;;;;;10.18;7.05;;;;;;;7.30;96.95;98932.38;5026796;28;20037;-78
2023/01/07 04:38:16;;;;;;;8.77;6.53;;;;;;;7.20;97.62;98916.19;5030573;28;20033;-78
2023/01/07 04:40:41;;;;;;;10.93;8.27;;;;;;;7.22;97.08;98925.53;5026984;28;20068;-78
2023/01/07 04:43:09;;;;;;;11.10;8.20;;;;;;;7.31;97.86;98926.03;5030252;28;20468;-78
2023/01/07 04:45:34;;;;;;;11.75;6.85;;;;;;;7.25;97.55;98925.06;5028546;28;20025;-79
2023/01/07 04:47:59;;;;;;;10.02;7.43;;;;;;;7.25;97.77;98914.47;5009127;28;20037;-79
2023/01/07 04:50:25;;;;;;;11.27;8.32;;;;;;;7.25;97.36;98911.81;5028613;28;20029;-78
2023/01/07 04:52:50;;;;;;;8.45;6.82;;;;;;;7.27;96.82;98908.94;5028956;28;20528;-79
2023/01/07 04:55:16;;;;;;;9.65;7.43;;;;;;;7.26;97.31;98894.03;5027776;28;20493;-79
2023/01/07 04:57:42;;;;;;;10.45;7.50;;;;;;;7.23;97.84;98910.44;5027410;28;20055;-77
2023/01/07 05:00:08;;;;;;;10.40;7.70;;;;;;;7.34;97.00;98901.69;5027964;28;20029;-78
2023/01/07 05:02:34;;;;;;;10.88;7.20;;;;;;;7.31;96.79;98892.34;5028264;28;20576;-78
2023/01/07 05:04:59;;;;;;;9.45;6.95;;;;;;;7.31;97.06;98888.88;5028130;28;20051;-78
2023/01/07 05:07:25;;;;;;;8.85;6.38;;;;;;;7.20;97.46;98886.97;5027056;28;20071;-78
2023/01/07 05:09:50;;;;;;;8.43;5.97;;;;;;;7.22;97.96;98888.38;5027814;28;20029;-79
2023/01/07 05:12:16;;;;;;;8.20;6.90;;;;;;;7.27;97.29;98877.88;5027958;28;20087;-80
2023/01/07 05:14:41;;;;;;;8.13;6.72;;;;;;;7.34;96.95;98891.88;5008710;28;20487;-80
2023/01/07 05:17:07;;;;;;;7.25;6.50;;;;;;;7.25;96.76;98877.28;5021908;28;20035;-79
2023/01/07 05:19:32;;;;;;;6.90;5.80;;;;;;;7.36;96.33;98883.69;5005401;28;20043;-79
2023/01/07 05:21:57;;;;;;;9.07;7.03;;;;;;;7.45;96.13;98864.53;5020911;28;20068;-80
2023/01/07 05:24:23;;;;;;;6.88;5.82;;;;;;;7.52;96.23;98869.75;5006217;28;20033;-80
2023/01/07 05:26:48;;;;;;;7.25;5.40;;;;;;;7.44;96.65;98867.44;5016822;28;20039;-80
2023/01/07 05:29:13;;;;;;;6.57;5.45;;;;;;;7.34;96.41;98861.84;5025142;28;20029;-79
2023/01/07 05:31:39;;;;;;;5.68;4.93;;;;;;;7.34;97.44;98875.94;5023317;28;20215;-79
2023/01/07 05:34:05;;;;;;;6.63;4.72;;;;;;;7.23;96.80;98871.41;5023970;28;20037;-79
2023/01/07 05:36:30;;;;;;;5.10;4.28;;;;;;;7.33;96.86;98853.09;5025914;28;20451;-79
2023/01/07 05:38:56;;;;;;;6.28;5.05;;;;;;;7.40;96.61;98869.72;5024153;28;20021;-79
2023/01/07 05:41:21;;;;;;;5.80;5.07;;;;;;;7.31;96.76;98854.34;5005047;28;20056;-79
2023/01/07 05:43:46;;;;;;;6.68;4.82;;;;;;;7.27;97.13;98853.97;4995477;28;20033;-79
2023/01/07 05:46:12;;;;;;;5.63;4.10;;;;;;;7.23;96.89;98849.38;5024971;28;20565;-79
2023/01/07 05:48:37;;;;;;;6.43;3.85;;;;;;;7.30;97.31;98866.00;5009152;28;20026;-79
2023/01/07 05:51:03;;;;;;;6.63;4.82;;;;;;;7.25;96.97;98861.38;5027868;28;20440;-81
2023/01/07 05:53:28;;;;;;;10.32;4.63;;;;;;;7.33;97.26;98878.84;5027581;28;20030;-80
2023/01/07 05:55:58;;;;;;;6.70;4.47;;;;;;;7.30;96.78;98871.31;5007338;28;20036;-80
2023/01/07 05:58:24;;;;;;;7.53;4.80;;;;;;;7.29;96.60;98862.56;5025356;28;20412;-80
2023/01/07 06:00:50;;;;;;;5.10;4.60;;;;;;;7.36;96.09;98865.13;5027436;28;20088;-80
2023/01/07 06:03:15;;;;;;;6.18;4.90;;;;;;;7.38;96.85;98874.44;5028672;28;20029;-80
2023/01/07 06:05:41;;;;;;;5.53;4.95;;;;;;;7.46;96.59;98875.97;5008150;28;20444;-80
2023/01/07 06:08:06;;;;;;;9.57;5.40;;;;;;;7.39;96.38;98860.16;5040848;28;20033;-80
2023/01/07 06:10:32;;;;;;;5.38;4.60;;;;;;;7.32;96.56;98862.09;5025063;28;20060;-80
2023/01/07 06:12:57;;;;;;;6.95;5.45;;;;;;;7.34;96.78;98867.97;5027392;28;20037;-79
2023/01/07 06:15:22;;;;;;;6.50;5.65;;;;;;;7.30;96.50;98853.53;5026845;28;20045;-79
2023/01/07 06:17:48;;;;;;;6.78;5.47;;;;;;;7.32;97.43;98866.56;4991539;28;20033;-79
2023/01/07 06:20:14;;;;;;;6.82;5.53;;;;;;;7.40;96.18;98875.03;5025886;28;20125;-79
2023/01/07 06:22:41;;;;;;;6.28;5.43;;;;;;;7.30;97.34;98861.50;5028156;28;20144;-80
2023/01/07 06:25:07;;;;;;;6.60;5.28;;;;;;;7.35;96.33;98860.81;5026207;28;20029;-79
2023/01/07 06:27:33;;;;;;;7.30;5.78;;;;;;;7.32;96.79;98864.75;5024946;28;20030;-79
2023/01/07 06:29:58;;;;;;;9.55;6.38;;;;;;;7.34;96.16;98857.34;5004131;28;20562;-79
2023/01/07 06:32:24;;;;;;;9.02;6.65;;;;;;;7.36;96.57;98873.09;5024063;28;20045;-79
2023/01/07 06:34:49;;;;;;;9.57;6.45;;;;;;;7.43;95.85;98869.28;5022538;28;20033;-79
2023/01/07 06:37:16;;;;;;;7.70;6.50;;;;;;;7.35;96.06;98868.78;5005249;28;20540;-78
2023/01/07 06:39:42;;;;;;;7.30;5.88;;;;;;;7.27;96.66;98859.28;5025920;28;20461;-79
2023/01/07 06:42:07;;;;;;;7.78;6.07;;;;;;;7.28;96.78;98858.28;5027028;28;20063;-79
2023/01/07 06:44:32;;;;;;;8.68;6.82;;;;;;;7.30;96.08;98861.50;5011384;28;20045;-79
2023/01/07 06:46:58;;;;;;;6.70;6.00;;;;;;;7.26;96.36;98865.66;5011254;28;20116;-80
2023/01/07 06:49:23;;;;;;;8.70;5.50;;;;;;;7.31;96.42;98851.69;5030961;28;20037;-79
2023/01/07 06:51:49;;;;;;;7.45;6.65;;;;;;;7.24;96.25;98857.09;5011738;28;20537;-79
2023/01/07 06:54:14;;;;;;;9.30;6.68;;;;;;;7.34;95.48;98859.19;5030315;28;20832;-79
2023/01/07 06:56:39;;;;;;;9.45;6.07;;;;;;;7.41;95.76;98860.72;5029541;28;20037;-79
2023/01/07 06:59:05;;;;;;;6.95;6.20;;;;;;;7.45;95.91;98867.19;5028890;28;20082;-80
2023/01/07 07:01:30;;;;;;;9.55;6.18;;;;;;;7.46;95.41;98868.00;5009293;28;20041;-79
2023/01/07 07:03:55;;;;;;;11.60;7.50;;;;;;;7.42;95.42;98858.88;4996508;28;20562;-79
2023/01/07 07:06:21;;;;;;;8.85;7.05;;;;;;;7.54;95.50;98878.31;5029599;28;20152;-80
2023/01/07 07:08:46;;;;;;;8.57;6.07;;;;;;;7.55;95.52;98872.78;5025289;28;20033;-79
2023/01/07 07:11:11;;;;;;;7.30;6.30;;;;;;;7.53;95.83;98874.03;5027930;28;20040;-79
2023/01/07 07:13:37;;;;;;;8.75;6.22;;;;;;;7.56;95.24;98876.22;5024793;28;20030;-79
2023/01/07 07:16:02;;;;;;;8.07;6.20;;;;;;;7.66;94.67;98873.00;5006578;28;20040;-80
2023/01/07 07:18:29;;;;;;;7.35;6.20;;;;;;;7.67;94.57;98867.47;5007371;28;20029;-80
2023/01/07 07:20:55;;;;;;;7.10;5.47;;;;;;;7.59;95.08;98873.13;5030233;28;20029;-80
2023/01/07 07:23:20;;;;;;;9.00;6.18;;;;;;;7.60;94.72;98865.97;5007435;28;20124;-80
2023/01/07 07:25:46;;;;;;;7.53;5.95;;;;;;;7.62;95.02;98875.34;5006993;28;20089;-79
2023/01/07 07:28:11;;;;;;;6.55;5.60;;;;;;;7.60;94.05;98873.94;5022974;28;20052;-78
2023/01/07 07:30:36;;;;;;;7.53;6.22;;;;;;;7.62;94.45;98866.53;5006331;28;20713;-79
2023/01/07 07:33:03;;;;;;;7.88;5.50;;;;;;;7.61;94.39;98872.88;5032779;28;20037;-79
2023/01/07 07:35:30;;;;;;;7.32;5.70;;;;;;;7.43;96.03;98874.59;5028628;28;20029;-79
2023/01/07 07:37:55;;;;;;;6.25;5.03;;;;;;;7.58;94.98;98856.38;5025121;28;20507;-79
2023/01/07 07:40:20;;;;;;;11.40;7.93;;;;;;;7.74;94.69;98862.84;4988408;28;20033;-79
2023/01/07 07:42:46;;;;;;;7.07;5.68;;;;;;;7.72;94.17;98877.41;5024431;28;21855;-79
2023/01/07 07:45:11;;;;;;;5.70;5.00;;;;;;;7.58;95.47;98871.50;5012541;28;20168;-79
2023/01/07 07:47:36;;;;;;;6.13;5.32;;;;;;;7.62;94.91;98863.88;5028874;28;20029;-79
2023/01/07 07:50:02;;;;;;;6.30;5.47;;;;;;;7.56;95.26;98869.06;5005116;28;20029;-79
2023/01/07 07:52:28;;;;;;;8.85;5.88;;;;;;;7.51;95.13;98858.31;5025805;28;20048;-79
2023/01/07 07:54:53;;;;;;;7.22;5.13;;;;;;;7.45;96.02;98871.69;5019133;28;20029;-80
2023/01/07 07:57:18;;;;;;;7.13;5.57;;;;;;;7.60;95.58;98858.78;5026745;28;20025;-80
2023/01/07 07:59:44;;;;;;;6.60;5.43;;;;;;;7.52;95.01;98854.63;5028869;28;20029;-80
2023/01/07 08:02:13;;;;;;;5.95;4.82;;;;;;;7.50;95.04;98842.63;5007507;28;20099;-80
2023/01/07 08:04:38;;;;;;;5.88;5.18;;;;;;;7.48;95.57;98848.16;5026334;28;20030;-80
2023/01/07 08:07:03;;;;;;;7.05;5.80;;;;;;;7.38;96.44;98849.75;5025064;28;20026;-79
2023/01/07 08:09:29;;;;;;;7.50;5.50;;;;;;;7.41;97.01;98844.78;5041315;28;20048;-79
2023/01/07 08:11:54;;;;;;;5.95;4.78;;;;;;;7.53;95.55;98847.47;5027868;28;20048;-79
2023/01/07 08:14:20;;;;;;;6.68;5.18;;;;;;;7.72;94.82;98842.88;5030830;28;20120;-79
2023/01/07 08:16:45;;;;;;;9.93;5.90;;;;;;;7.52;94.98;98830.72;5028478;28;20508;-79
2023/01/07 08:19:11;;;;;;;7.10;5.90;;;;;;;7.40;95.73;98837.06;5022702;28;20060;-79
2023/01/07 08:21:36;;;;;;;5.63;4.85;;;;;;;7.65;95.12;98844.81;5008692;28;20029;-79
2023/01/07 08:24:02;;;;;;;5.70;5.13;;;;;;;7.61;95.00;98841.00;5027009;28;20040;-79
2023/01/07 08:26:27;;;;;;;6.45;5.28;;;;;;;7.78;95.02;98839.28;5028416;28;20044;-79
2023/01/07 08:28:53;;;;;;;6.43;5.05;;;;;;;7.52;95.59;98828.06;5027515;28;20029;-79
2023/01/07 08:31:18;;;;;;;5.80;4.20;;;;;;;7.75;95.35;98829.97;5031155;28;20037;-79
2023/01/07 08:33:44;;;;;;;7.53;5.18;;;;;;;7.58;94.73;98834.31;5014745;28;20111;-79
2023/01/07 08:36:09;;;;;;;5.90;4.97;;;;;;;7.72;95.46;98834.91;5027613;28;20048;-79
2023/01/07 08:38:34;;;;;;;4.95;4.43;;;;;;;7.71;95.19;98826.13;5027503;28;20037;-80
2023/01/07 08:41:00;;;;;;;4.35;3.95;;;;;;;7.62;94.99;98822.22;5030105;28;20132;-81
2023/01/07 08:43:26;;;;;;;4.78;4.28;;;;;;;7.50;96.04;98838.13;5028450;28;20033;-79
2023/01/07 08:45:52;;;;;;;4.60;4.18;;;;;;;7.65;95.63;98819.06;5022201;28;20115;-80
2023/01/07 08:48:18;;;;;;;5.80;4.68;;;;;;;7.60;95.43;98836.75;5040755;28;20036;-80
2023/01/07 08:50:48;;;;;;;5.25;4.13;;;;;;;7.71;95.07;98831.44;5021103;28;20097;-80
2023/01/07 08:53:14;;;;;;;5.03;3.67;;;;;;;7.72;94.97;98837.56;5025933;28;20061;-81
2023/01/07 08:55:39;;;;;;;6.07;3.50;;;;;;;7.47;95.62;98843.06;5007816;28;20523;-81
2023/01/07 08:58:04;;;;;;;983.13;627.45;;;;;;;7.66;95.55;98838.47;5005471;28;20029;-80
2023/01/07 09:00:30;;;;;;;257.85;203.60;;;;;;;7.74;94.32;98846.09;5008392;28;20037;-80
2023/01/07 09:02:55;;;;;;;455.80;374.15;;;;;;;8.03;93.74;98829.25;5027897;28;20034;-79
2023/01/07 09:05:20;;;;;;;65.68;51.25;;;;;;;7.99;93.12;98828.91;5025747;28;20033;-80
2023/01/07 09:07:46;;;;;;;232.20;179.95;;;;;;;8.04;94.23;98834.31;5027375;28;20485;-80
2023/01/07 09:10:11;;;;;;;146.40;110.47;;;;;;;8.02;92.83;98820.47;5027016;28;20200;-78
2023/01/07 09:12:37;;;;;;;7.25;6.43;;;;;;;7.76;94.32;98825.44;5026576;28;20087;-80
2023/01/07 09:15:02;;;;;;;25.33;13.38;;;;;;;7.97;92.87;98825.66;5026419;28;20075;-79
2023/01/07 09:17:28;;;;;;;70.40;34.85;;;;;;;8.29;92.61;98818.16;5028007;28;20034;-79
2023/01/07 09:19:53;;;;;;;5.90;4.07;;;;;;;8.11;92.16;98816.41;5005622;28;20094;-81
2023/01/07 09:22:19;;;;;;;48.58;13.85;;;;;;;7.99;93.77;98815.63;5008841;28;20128;-80
2023/01/07 09:24:44;;;;;;;16.80;8.07;;;;;;;8.27;92.28;98817.56;5025952;28;20021;-81
2023/01/07 09:27:10;;;;;;;39.92;17.88;;;;;;;8.23;92.80;98821.72;5026896;28;20872;-80
2023/01/07 09:29:35;;;;;;;43.10;14.95;;;;;;;8.77;91.57;98823.91;5029866;28;20025;-80
2023/01/07 09:32:00;;;;;;;4.22;3.10;;;;;;;8.57;91.75;98818.19;5042728;28;20033;-80
2023/01/07 09:34:26;;;;;;;11.48;4.53;;;;;;;8.46;92.10;98802.25;5028419;28;20033;-80
2023/01/07 09:36:51;;;;;;;14.48;8.57;;;;;;;8.66;91.38;98806.13;5023532;28;20508;-80
2023/01/07 09:39:17;;;;;;;5.60;2.70;;;;;;;8.39;91.09;98805.06;4992474;28;20037;-80
2023/01/07 09:41:42;;;;;;;4.93;2.60;;;;;;;8.32;91.09;98813.16;5009650;28;20037;-80
2023/01/07 09:44:24;;;;;;;1999.90;738.15;;;;;;;8.89;91.48;98798.06;5027674;28;20389;-81
2023/01/07 09:46:52;;;;;;;380.02;86.55;;;;;;;8.94;89.81;98808.81;5027556;28;20025;-81
2023/01/07 09:49:18;;;;;;;402.25;110.03;;;;;;;8.74;90.79;98815.59;5022363;28;20072;-81
2023/01/07 09:52:07;;;;;;;728.53;203.18;;;;;;;8.64;91.03;98800.25;5020572;28;20529;-79
2023/01/07 09:54:34;;;;;;;1846.75;570.90;;;;;;;9.07;91.62;98803.19;5023222;28;20049;-81
2023/01/07 09:57:00;;;;;;;707.00;234.10;;;;;;;8.88;90.08;98788.47;5023572;28;20440;-81
2023/01/07 09:59:29;;;;;;;455.15;128.10;;;;;;;8.84;90.22;98795.31;5025864;28;20018;-81
2023/01/07 10:02:11;;;;;;;436.23;113.30;;;;;;;8.66;90.86;98794.69;4991740;28;20497;-81
2023/01/07 10:04:42;;;;;;;519.90;129.27;;;;;;;8.83;90.92;98788.38;5026654;28;20123;-81
2023/01/07 10:07:30;;;;;;;335.60;73.40;;;;;;;8.92;89.23;98792.25;5006916;28;20112;-81
2023/01/07 10:10:12;;;;;;;19.40;5.78;;;;;;;8.71;90.72;98778.81;5023578;28;20029;-81
2023/01/07 10:12:53;;;;;;;458.38;392.77;;;;;;;8.58;90.59;98769.28;5017596;28;20030;-80
2023/01/07 10:15:31;;;;;;;191.18;164.52;;;;;;;8.86;90.16;98779.91;5023839;28;20413;-81
2023/01/07 10:18:14;;;;;;;287.27;255.88;;;;;;;8.85;89.82;98772.97;5023158;28;20570;-81
2023/01/07 10:20:54;;;;;;;175.88;144.60;;;;;;;8.88;90.18;98763.69;5027967;28;20029;-80
2023/01/07 10:23:22;;;;;;;746.05;570.97;;;;;;;9.25;88.01;98777.38;5026149;28;20124;-80
2023/01/07 10:25:54;;;;;;;400.88;345.52;;;;;;;9.19;88.46;98773.03;5014175;28;20120;-80
2023/01/07 10:28:37;;;;;;;808.33;679.08;;;;;;;9.16;89.22;98762.84;5023707;28;20029;-81
2023/01/07 10:31:05;;;;;;;977.75;776.47;;;;;;;9.40;87.12;98745.66;5017730;28;20425;-80
2023/01/07 10:33:32;;;;;;;1166.38;851.97;;;;;;;9.22;88.61;98745.91;5019530;28;20108;-81
2023/01/07 10:36:23;;;;;;;416.60;368.92;;;;;;;9.17;89.06;98749.31;5027104;28;20649;-81
2023/01/07 10:39:15;;;;;;;88.60;79.47;;;;;;;9.16;89.17;98728.22;5029906;28;20037;-81
2023/01/07 10:41:46;;;;;;;786.15;682.85;;;;;;;9.48;87.26;98730.06;5025081;28;20068;-81
2023/01/07 10:44:47;;;;;;;394.92;353.10;;;;;;;9.37;88.11;98732.84;5018957;28;20389;-81
2023/01/07 10:47:17;;;;;;;340.38;303.40;;;;;;;9.46;87.33;98731.34;5026064;28;20041;-81
2023/01/07 10:50:01;;;;;;;131.80;117.43;;;;;;;9.36;87.45;98716.03;5029044;28;20025;-82
2023/01/07 10:52:35;;;;;;;25.15;20.50;;;;;;;9.09;88.89;98717.72;5029305;28;20025;-82
2023/01/07 10:55:00;;;;;;;44.83;35.03;;;;;;;9.04;89.14;98713.13;5021711;28;20514;-82
2023/01/07 10:57:28;;;;;;;94.70;71.07;;;;;;;9.22;88.94;98706.75;5028428;28;20072;-82
2023/01/07 10:59:58;;;;;;;183.90;145.63;;;;;;;9.36;87.53;98693.91;5029065;28;20055;-82
2023/01/07 11:02:26;;;;;;;152.55;120.07;;;;;;;9.39;86.94;98698.78;5026138;28;20018;-83
2023/01/07 11:04:55;;;;;;;188.43;145.40;;;;;;;9.37;87.48;98700.88;5026008;28;20116;-82
2023/01/07 11:07:39;;;;;;;207.02;146.98;;;;;;;9.12;87.30;98687.97;5028322;28;20428;-82
2023/01/07 11:10:06;;;;;;;171.38;112.13;;;;;;;9.17;87.08;98687.25;5024945;28;20484;-82
2023/01/07 11:12:38;;;;;;;112.07;76.35;;;;;;;9.12;87.11;98687.16;5025627;28;20038;-83
2023/01/07 11:15:12;;;;;;;68.30;42.72;;;;;;;9.17;87.20;98668.59;5028535;28;20029;-82
2023/01/07 11:17:44;;;;;;;40.70;23.20;;;;;;;9.17;87.09;98672.09;5030702;28;20442;-81
2023/01/07 11:20:11;;;;;;;35.40;16.88;;;;;;;9.16;86.47;98664.31;5023020;28;20504;-82
2023/01/07 11:22:37;;;;;;;12.50;6.85;;;;;;;9.16;85.88;98664.31;5013116;28;20480;-82
2023/01/07 11:25:26;;;;;;;38.95;8.90;;;;;;;9.21;86.42;98667.06;5048553;28;20048;-82
2023/01/07 11:27:52;;;;;;;30.92;4.50;;;;;;;9.26;86.11;98661.81;5026493;28;20393;-81
2023/01/07 11:30:26;;;;;;;93.25;11.07;;;;;;;9.20;85.47;98660.94;5016971;28;20029;-82
2023/01/07 11:33:01;;;;;;;13.93;3.28;;;;;;;8.92;86.40;98656.53;4994758;28;20041;-82
2023/01/07 11:35:27;;;;;;;16.70;3.33;;;;;;;8.86;85.80;98644.19;5007639;28;20041;-82
2023/01/07 11:37:55;;;;;;;7.55;2.13;;;;;;;8.81;86.65;98649.41;5025795;28;20060;-81
2023/01/07 11:40:31;;;;;;;4.72;1.83;;;;;;;8.81;86.60;98652.06;5030068;28;20037;-82
2023/01/07 11:42:58;;;;;;;3.72;1.67;;;;;;;8.73;85.60;98651.66;5027761;28;20132;-81
2023/01/07 11:45:23;;;;;;;4.80;1.80;;;;;;;8.78;86.13;98639.25;5027993;28;20567;-81